sensor_id;sensor_type;location;lat;lon;timestamp;pressure;altitude;pressure_sealevel;temperature;humidity
33781;BME280;20097;50.832;19.100;2023-03-01T00:00:04;99550.84;;;-5.20;100.00
33781;BME280;20097;50.832;19.100;2023-03-01T00:05:13;99551.28;;;-5.35;100.00
33781;BME280;20097;50.832;19.100;2023-03-01T00:10:19;99546.94;;;-5.32;100.00
33781;BME280;20097;50.832;19.100;2023-03-01T00:15:23;99553.22;;;-5.43;100.00
33781;BME280;20097;50.832;19.100;2023-03-01T00:20:27;99550.75;;;-5.17;100.00
33781;BME280;20097;50.832;19.100;2023-03-01T00:25:32;99539.53;;;-5.12;100.00
33781;BME280;20097;50.832;19.100;2023-03-01T00:30:36;99529.25;;;-5.09;100.00
33781;BME280;20097;50.832;19.100;2023-03-01T00:35:41;99523.59;;;-5.46;100.00
33781;BME280;20097;50.832;19.100;2023-03-01T00:40:46;99516.16;;;-5.52;100.00
33781;BME280;20097;50.832;19.100;2023-03-01T00:45:50;99517.59;;;-5.43;100.00
33781;BME280;20097;50.832;19.100;2023-03-01T00:50:54;99515.88;;;-5.72;100.00
33781;BME280;20097;50.832;19.100;2023-03-01T00:56:00;99509.22;;;-5.47;100.00
33781;BME280;20097;50.832;19.100;2023-03-01T01:01:07;99505.09;;;-5.51;100.00
33781;BME280;20097;50.832;19.100;2023-03-01T01:06:22;99508.22;;;-5.14;100.00
33781;BME280;20097;50.832;19.100;2023-03-01T01:11:28;99518.41;;;-5.43;100.00
33781;BME280;20097;50.832;19.100;2023-03-01T01:16:33;99508.16;;;-5.69;100.00
33781;BME280;20097;50.832;19.100;2023-03-01T01:21:37;99501.78;;;-5.53;100.00
33781;BME280;20097;50.832;19.100;2023-03-01T01:26:43;99507.59;;;-5.79;100.00
33781;BME280;20097;50.832;19.100;2023-03-01T01:31:48;99493.19;;;-5.78;100.00
33781;BME280;20097;50.832;19.100;2023-03-01T01:36:53;99489.38;;;-5.64;100.00
33781;BME280;20097;50.832;19.100;2023-03-01T01:41:58;99487.19;;;-5.46;100.00
33781;BME280;20097;50.832;19.100;2023-03-01T01:47:05;99473.88;;;-5.28;100.00
33781;BME280;20097;50.832;19.100;2023-03-01T01:52:11;99466.84;;;-5.48;100.00
33781;BME280;20097;50.832;19.100;2023-03-01T01:57:20;99465.59;;;-5.61;100.00
33781;BME280;20097;50.832;19.100;2023-03-01T02:02:25;99462.78;;;-5.81;100.00
33781;BME280;20097;50.832;19.100;2023-03-01T02:07:30;99474.25;;;-5.68;100.00
33781;BME280;20097;50.832;19.100;2023-03-01T02:12:36;99464.69;;;-5.60;100.00
33781;BME280;20097;50.832;19.100;2023-03-01T02:17:42;99466.81;;;-5.74;100.00
33781;BME280;20097;50.832;19.100;2023-03-01T02:22:46;99475.41;;;-5.78;100.00
33781;BME280;20097;50.832;19.100;2023-03-01T02:27:54;99485.53;;;-5.49;100.00
33781;BME280;20097;50.832;19.100;2023-03-01T02:33:04;99473.13;;;-5.30;100.00
33781;BME280;20097;50.832;19.100;2023-03-01T02:38:08;99471.13;;;-5.21;100.00
33781;BME280;20097;50.832;19.100;2023-03-01T02:43:12;99475.13;;;-5.40;100.00
33781;BME280;20097;50.832;19.100;2023-03-01T02:48:19;99464.16;;;-5.42;100.00
33781;BME280;20097;50.832;19.100;2023-03-01T02:53:25;99472.41;;;-5.63;100.00
33781;BME280;20097;50.832;19.100;2023-03-01T02:58:32;99454.63;;;-5.35;100.00
33781;BME280;20097;50.832;19.100;2023-03-01T03:03:44;99450.97;;;-5.28;100.00
33781;BME280;20097;50.832;19.100;2023-03-01T03:08:49;99463.00;;;-5.32;100.00
33781;BME280;20097;50.832;19.100;2023-03-01T03:13:54;99464.66;;;-5.58;100.00
33781;BME280;20097;50.832;19.100;2023-03-01T03:19:00;99465.31;;;-5.81;100.00
33781;BME280;20097;50.832;19.100;2023-03-01T03:24:08;99466.63;;;-5.40;100.00
33781;BME280;20097;50.832;19.100;2023-03-01T03:29:12;99456.81;;;-5.25;100.00
33781;BME280;20097;50.832;19.100;2023-03-01T03:34:18;99454.66;;;-5.65;100.00
33781;BME280;20097;50.832;19.100;2023-03-01T03:39:22;99459.06;;;-5.97;100.00
33781;BME280;20097;50.832;19.100;2023-03-01T03:44:26;99457.50;;;-6.03;100.00
33781;BME280;20097;50.832;19.100;2023-03-01T03:49:33;99455.53;;;-5.93;100.00
33781;BME280;20097;50.832;19.100;2023-03-01T03:54:37;99460.09;;;-6.04;100.00
33781;BME280;20097;50.832;19.100;2023-03-01T03:59:41;99463.72;;;-6.43;100.00
33781;BME280;20097;50.832;19.100;2023-03-01T04:04:46;99455.44;;;-6.50;100.00
33781;BME280;20097;50.832;19.100;2023-03-01T04:09:52;99433.34;;;-6.17;100.00
33781;BME280;20097;50.832;19.100;2023-03-01T04:14:56;99430.97;;;-6.22;100.00
33781;BME280;20097;50.832;19.100;2023-03-01T04:20:02;99434.06;;;-6.12;100.00
33781;BME280;20097;50.832;19.100;2023-03-01T04:25:10;99419.38;;;-6.03;100.00
33781;BME280;20097;50.832;19.100;2023-03-01T04:30:16;99429.69;;;-6.07;100.00
33781;BME280;20097;50.832;19.100;2023-03-01T04:35:22;99428.66;;;-6.61;100.00
33781;BME280;20097;50.832;19.100;2023-03-01T04:40:26;99437.28;;;-6.67;100.00
33781;BME280;20097;50.832;19.100;2023-03-01T04:45:32;99436.44;;;-6.67;100.00
33781;BME280;20097;50.832;19.100;2023-03-01T04:50:38;99439.81;;;-6.67;100.00
33781;BME280;20097;50.832;19.100;2023-03-01T04:55:43;99448.63;;;-6.80;100.00
33781;BME280;20097;50.832;19.100;2023-03-01T05:00:47;99438.91;;;-6.34;100.00
33781;BME280;20097;50.832;19.100;2023-03-01T05:05:53;99440.28;;;-6.22;100.00
33781;BME280;20097;50.832;19.100;2023-03-01T05:10:57;99442.16;;;-6.59;100.00
33781;BME280;20097;50.832;19.100;2023-03-01T05:16:02;99443.00;;;-6.59;100.00
33781;BME280;20097;50.832;19.100;2023-03-01T05:21:10;99441.38;;;-6.63;100.00
33781;BME280;20097;50.832;19.100;2023-03-01T05:26:15;99456.75;;;-6.67;100.00
33781;BME280;20097;50.832;19.100;2023-03-01T05:31:35;99453.41;;;-6.69;100.00
33781;BME280;20097;50.832;19.100;2023-03-01T05:36:42;99450.38;;;-6.51;100.00
33781;BME280;20097;50.832;19.100;2023-03-01T05:41:46;99458.81;;;-6.19;100.00
33781;BME280;20097;50.832;19.100;2023-03-01T05:46:50;99455.69;;;-6.28;100.00
33781;BME280;20097;50.832;19.100;2023-03-01T05:51:56;99463.59;;;-6.39;100.00
33781;BME280;20097;50.832;19.100;2023-03-01T05:57:00;99456.53;;;-6.29;100.00
33781;BME280;20097;50.832;19.100;2023-03-01T06:02:04;99433.78;;;-6.03;100.00
33781;BME280;20097;50.832;19.100;2023-03-01T06:07:10;99427.91;;;-5.76;100.00
33781;BME280;20097;50.832;19.100;2023-03-01T06:12:14;99425.25;;;-5.73;100.00
33781;BME280;20097;50.832;19.100;2023-03-01T06:17:18;99429.78;;;-5.55;100.00
33781;BME280;20097;50.832;19.100;2023-03-01T06:22:23;99431.97;;;-5.44;100.00
33781;BME280;20097;50.832;19.100;2023-03-01T06:27:28;99429.47;;;-5.18;100.00
33781;BME280;20097;50.832;19.100;2023-03-01T06:32:32;99424.66;;;-5.27;100.00
33781;BME280;20097;50.832;19.100;2023-03-01T06:37:37;99416.03;;;-4.97;100.00
33781;BME280;20097;50.832;19.100;2023-03-01T06:42:43;99421.34;;;-4.79;100.00
33781;BME280;20097;50.832;19.100;2023-03-01T06:47:48;99429.91;;;-4.57;100.00
33781;BME280;20097;50.832;19.100;2023-03-01T06:52:56;99442.34;;;-4.48;100.00
33781;BME280;20097;50.832;19.100;2023-03-01T06:58:01;99443.81;;;-4.18;100.00
33781;BME280;20097;50.832;19.100;2023-03-01T07:03:05;99435.06;;;-3.87;100.00
33781;BME280;20097;50.832;19.100;2023-03-01T07:08:11;99441.91;;;-3.66;100.00
33781;BME280;20097;50.832;19.100;2023-03-01T07:13:16;99435.22;;;-3.47;100.00
33781;BME280;20097;50.832;19.100;2023-03-01T07:18:20;99434.63;;;-3.32;100.00
33781;BME280;20097;50.832;19.100;2023-03-01T07:23:26;99432.75;;;-3.07;100.00
33781;BME280;20097;50.832;19.100;2023-03-01T07:28:30;99425.63;;;-2.79;100.00
33781;BME280;20097;50.832;19.100;2023-03-01T07:33:38;99426.00;;;-2.48;100.00
33781;BME280;20097;50.832;19.100;2023-03-01T07:38:44;99428.59;;;-2.29;100.00
33781;BME280;20097;50.832;19.100;2023-03-01T07:43:48;99422.06;;;-2.16;100.00
33781;BME280;20097;50.832;19.100;2023-03-01T07:48:52;99418.31;;;-2.09;100.00
33781;BME280;20097;50.832;19.100;2023-03-01T07:53:58;99416.47;;;-1.87;100.00
33781;BME280;20097;50.832;19.100;2023-03-01T07:59:02;99407.06;;;-1.68;100.00
33781;BME280;20097;50.832;19.100;2023-03-01T08:04:07;99406.44;;;-1.55;100.00
33781;BME280;20097;50.832;19.100;2023-03-01T08:09:12;99399.75;;;-1.40;100.00
33781;BME280;20097;50.832;19.100;2023-03-01T08:14:17;99397.59;;;-1.30;100.00
33781;BME280;20097;50.832;19.100;2023-03-01T08:19:22;99402.25;;;-1.21;100.00
33781;BME280;20097;50.832;19.100;2023-03-01T08:24:28;99403.16;;;-1.05;100.00
33781;BME280;20097;50.832;19.100;2023-03-01T08:29:33;99405.66;;;-0.87;100.00
33781;BME280;20097;50.832;19.100;2023-03-01T08:34:37;99402.63;;;-0.78;100.00
33781;BME280;20097;50.832;19.100;2023-03-01T08:39:44;99409.50;;;-0.61;100.00
33781;BME280;20097;50.832;19.100;2023-03-01T08:44:48;99413.78;;;-0.45;100.00
33781;BME280;20097;50.832;19.100;2023-03-01T08:49:53;99401.31;;;-0.35;96.92
33781;BME280;20097;50.832;19.100;2023-03-01T08:54:58;99409.69;;;-0.16;98.18
33781;BME280;20097;50.832;19.100;2023-03-01T09:00:05;99416.59;;;-0.01;94.16
33781;BME280;20097;50.832;19.100;2023-03-01T09:05:11;99401.63;;;0.07;92.54
33781;BME280;20097;50.832;19.100;2023-03-01T09:10:17;99404.31;;;0.21;91.00
33781;BME280;20097;50.832;19.100;2023-03-01T09:15:21;99397.84;;;0.45;91.01
33781;BME280;20097;50.832;19.100;2023-03-01T09:20:26;99406.53;;;0.58;86.77
33781;BME280;20097;50.832;19.100;2023-03-01T09:25:31;99408.00;;;0.62;85.19
33781;BME280;20097;50.832;19.100;2023-03-01T09:30:35;99407.69;;;0.68;85.77
33781;BME280;20097;50.832;19.100;2023-03-01T09:35:39;99418.00;;;0.82;84.68
33781;BME280;20097;50.832;19.100;2023-03-01T09:40:50;99411.16;;;0.97;84.94
33781;BME280;20097;50.832;19.100;2023-03-01T09:45:55;99410.97;;;1.15;80.63
33781;BME280;20097;50.832;19.100;2023-03-01T09:51:01;99403.75;;;1.36;80.45
33781;BME280;20097;50.832;19.100;2023-03-01T09:56:15;99403.00;;;1.48;78.19
33781;BME280;20097;50.832;19.100;2023-03-01T10:01:34;99403.13;;;1.61;79.37
33781;BME280;20097;50.832;19.100;2023-03-01T10:06:40;99398.44;;;1.67;76.14
33781;BME280;20097;50.832;19.100;2023-03-01T10:11:51;99400.53;;;1.89;74.32
33781;BME280;20097;50.832;19.100;2023-03-01T10:16:57;99400.09;;;1.96;73.62
33781;BME280;20097;50.832;19.100;2023-03-01T10:22:10;99389.22;;;2.05;70.03
33781;BME280;20097;50.832;19.100;2023-03-01T10:27:20;99389.13;;;2.21;68.97
33781;BME280;20097;50.832;19.100;2023-03-01T10:32:26;99385.13;;;2.29;68.70
33781;BME280;20097;50.832;19.100;2023-03-01T10:37:30;99371.78;;;2.37;69.50
33781;BME280;20097;50.832;19.100;2023-03-01T10:42:37;99368.06;;;2.55;68.51
33781;BME280;20097;50.832;19.100;2023-03-01T10:47:42;99373.88;;;2.71;67.02
33781;BME280;20097;50.832;19.100;2023-03-01T10:52:56;99366.16;;;2.71;65.55
33781;BME280;20097;50.832;19.100;2023-03-01T10:58:16;99361.03;;;2.83;66.12
33781;BME280;20097;50.832;19.100;2023-03-01T11:03:23;99368.78;;;2.96;63.76
33781;BME280;20097;50.832;19.100;2023-03-01T11:08:41;99369.16;;;3.29;60.99
33781;BME280;20097;50.832;19.100;2023-03-01T11:13:57;99371.53;;;3.32;56.68
33781;BME280;20097;50.832;19.100;2023-03-01T11:19:17;99376.16;;;3.27;52.38
33781;BME280;20097;50.832;19.100;2023-03-01T11:24:25;99383.53;;;3.33;51.93
33781;BME280;20097;50.832;19.100;2023-03-01T11:29:35;99377.50;;;3.58;52.57
33781;BME280;20097;50.832;19.100;2023-03-01T11:34:51;99373.78;;;3.74;54.49
33781;BME280;20097;50.832;19.100;2023-03-01T11:40:03;99373.19;;;3.83;54.16
33781;BME280;20097;50.832;19.100;2023-03-01T11:45:11;99357.88;;;3.93;54.54
33781;BME280;20097;50.832;19.100;2023-03-01T11:50:19;99350.38;;;4.13;54.55
33781;BME280;20097;50.832;19.100;2023-03-01T11:55:36;99349.69;;;4.35;54.55
33781;BME280;20097;50.832;19.100;2023-03-01T12:06:43;99353.25;;;4.92;51.85
33781;BME280;20097;50.832;19.100;2023-03-01T12:17:24;99343.94;;;5.35;52.40
33781;BME280;20097;50.832;19.100;2023-03-01T12:22:30;99331.47;;;5.40;52.87
33781;BME280;20097;50.832;19.100;2023-03-01T12:27:52;99319.59;;;5.49;51.96
33781;BME280;20097;50.832;19.100;2023-03-01T12:33:09;99308.44;;;5.71;51.70
33781;BME280;20097;50.832;19.100;2023-03-01T12:38:25;99304.78;;;5.62;50.91
33781;BME280;20097;50.832;19.100;2023-03-01T12:43:44;99299.25;;;5.55;50.59
33781;BME280;20097;50.832;19.100;2023-03-01T12:48:59;99296.78;;;5.43;52.12
33781;BME280;20097;50.832;19.100;2023-03-01T12:54:11;99301.13;;;5.53;51.44
33781;BME280;20097;50.832;19.100;2023-03-01T12:59:20;99301.59;;;5.70;51.51
33781;BME280;20097;50.832;19.100;2023-03-01T13:04:35;99301.22;;;5.63;51.41
33781;BME280;20097;50.832;19.100;2023-03-01T13:09:46;99301.47;;;5.71;51.47
33781;BME280;20097;50.832;19.100;2023-03-01T13:14:54;99296.50;;;5.79;50.76
33781;BME280;20097;50.832;19.100;2023-03-01T13:19:59;99281.59;;;5.83;50.43
33781;BME280;20097;50.832;19.100;2023-03-01T13:25:13;99276.03;;;5.65;51.00
33781;BME280;20097;50.832;19.100;2023-03-01T13:30:40;99269.47;;;5.83;51.97
33781;BME280;20097;50.832;19.100;2023-03-01T13:35:46;99263.78;;;5.78;50.95
33781;BME280;20097;50.832;19.100;2023-03-01T13:40:58;99264.88;;;5.76;51.86
33781;BME280;20097;50.832;19.100;2023-03-01T13:46:08;99260.25;;;5.79;51.72
33781;BME280;20097;50.832;19.100;2023-03-01T13:51:15;99259.34;;;5.69;51.83
33781;BME280;20097;50.832;19.100;2023-03-01T13:56:20;99259.06;;;5.94;52.60
33781;BME280;20097;50.832;19.100;2023-03-01T14:01:27;99254.84;;;5.93;52.33
33781;BME280;20097;50.832;19.100;2023-03-01T14:06:34;99252.34;;;6.03;51.97
33781;BME280;20097;50.832;19.100;2023-03-01T14:17:41;99245.84;;;6.71;51.05
33781;BME280;20097;50.832;19.100;2023-03-01T14:22:49;99239.44;;;6.55;50.31
33781;BME280;20097;50.832;19.100;2023-03-01T14:28:00;99241.97;;;6.45;49.93
33781;BME280;20097;50.832;19.100;2023-03-01T14:33:18;99241.19;;;5.91;49.79
33781;BME280;20097;50.832;19.100;2023-03-01T14:38:30;99236.94;;;5.79;50.14
33781;BME280;20097;50.832;19.100;2023-03-01T14:43:35;99225.19;;;5.64;49.89
33781;BME280;20097;50.832;19.100;2023-03-01T14:48:40;99216.97;;;5.37;49.11
33781;BME280;20097;50.832;19.100;2023-03-01T14:53:45;99214.88;;;5.09;49.72
33781;BME280;20097;50.832;19.100;2023-03-01T14:58:53;99222.34;;;4.79;49.98
33781;BME280;20097;50.832;19.100;2023-03-01T15:04:01;99220.72;;;4.78;48.55
33781;BME280;20097;50.832;19.100;2023-03-01T15:09:12;99213.75;;;4.67;48.12
33781;BME280;20097;50.832;19.100;2023-03-01T15:14:40;99212.63;;;4.48;48.10
33781;BME280;20097;50.832;19.100;2023-03-01T15:19:53;99212.81;;;4.34;48.19
33781;BME280;20097;50.832;19.100;2023-03-01T15:24:59;99219.03;;;4.31;48.94
33781;BME280;20097;50.832;19.100;2023-03-01T15:30:04;99229.50;;;4.06;48.90
33781;BME280;20097;50.832;19.100;2023-03-01T15:35:37;99238.44;;;3.89;48.19
33781;BME280;20097;50.832;19.100;2023-03-01T15:40:50;99234.16;;;3.77;49.22
33781;BME280;20097;50.832;19.100;2023-03-01T15:45:56;99219.34;;;3.56;49.25
33781;BME280;20097;50.832;19.100;2023-03-01T15:51:00;99227.13;;;3.31;50.24
33781;BME280;20097;50.832;19.100;2023-03-01T15:56:06;99230.47;;;3.20;51.33
33781;BME280;20097;50.832;19.100;2023-03-01T16:01:14;99235.09;;;3.03;51.68
33781;BME280;20097;50.832;19.100;2023-03-01T16:06:18;99229.75;;;2.80;52.11
33781;BME280;20097;50.832;19.100;2023-03-01T16:11:24;99222.59;;;2.59;53.67
33781;BME280;20097;50.832;19.100;2023-03-01T16:16:30;99216.50;;;2.35;54.67
33781;BME280;20097;50.832;19.100;2023-03-01T16:21:35;99208.75;;;1.96;56.31
33781;BME280;20097;50.832;19.100;2023-03-01T16:26:41;99204.13;;;1.74;57.51
33781;BME280;20097;50.832;19.100;2023-03-01T16:31:46;99196.56;;;1.59;58.26
33781;BME280;20097;50.832;19.100;2023-03-01T16:36:51;99190.75;;;1.28;59.76
33781;BME280;20097;50.832;19.100;2023-03-01T16:41:56;99185.63;;;1.00;60.77
33781;BME280;20097;50.832;19.100;2023-03-01T16:47:03;99175.44;;;0.71;63.81
33781;BME280;20097;50.832;19.100;2023-03-01T16:52:07;99173.28;;;0.35;66.07
33781;BME280;20097;50.832;19.100;2023-03-01T16:57:13;99172.78;;;0.15;67.19
33781;BME280;20097;50.832;19.100;2023-03-01T17:02:17;99176.16;;;0.15;67.43
33781;BME280;20097;50.832;19.100;2023-03-01T17:07:22;99176.41;;;0.11;66.97
33781;BME280;20097;50.832;19.100;2023-03-01T17:12:28;99180.06;;;0.07;66.62
33781;BME280;20097;50.832;19.100;2023-03-01T17:17:32;99176.09;;;-0.13;67.53
33781;BME280;20097;50.832;19.100;2023-03-01T17:22:37;99177.50;;;-0.39;67.24
33781;BME280;20097;50.832;19.100;2023-03-01T17:27:43;99175.38;;;-0.46;68.49
33781;BME280;20097;50.832;19.100;2023-03-01T17:32:48;99177.69;;;-0.57;69.64
33781;BME280;20097;50.832;19.100;2023-03-01T17:37:52;99180.00;;;-0.84;69.73
33781;BME280;20097;50.832;19.100;2023-03-01T17:42:58;99170.31;;;-0.94;70.02
33781;BME280;20097;50.832;19.100;2023-03-01T17:48:02;99166.66;;;-1.06;71.66
33781;BME280;20097;50.832;19.100;2023-03-01T17:53:06;99175.75;;;-1.00;68.11
33781;BME280;20097;50.832;19.100;2023-03-01T17:58:13;99168.56;;;-1.09;72.40
33781;BME280;20097;50.832;19.100;2023-03-01T18:03:19;99162.25;;;-1.19;73.81
33781;BME280;20097;50.832;19.100;2023-03-01T18:08:23;99180.22;;;-1.37;73.23
33781;BME280;20097;50.832;19.100;2023-03-01T18:13:29;99174.13;;;-1.34;70.66
33781;BME280;20097;50.832;19.100;2023-03-01T18:18:33;99166.50;;;-1.35;74.72
33781;BME280;20097;50.832;19.100;2023-03-01T18:23:37;99168.13;;;-1.50;76.50
33781;BME280;20097;50.832;19.100;2023-03-01T18:28:43;99169.88;;;-1.68;78.96
33781;BME280;20097;50.832;19.100;2023-03-01T18:33:51;99162.50;;;-1.74;77.59
33781;BME280;20097;50.832;19.100;2023-03-01T18:38:56;99165.81;;;-1.72;76.49
33781;BME280;20097;50.832;19.100;2023-03-01T18:44:02;99166.34;;;-1.82;79.05
33781;BME280;20097;50.832;19.100;2023-03-01T18:49:07;99165.69;;;-1.86;78.82
33781;BME280;20097;50.832;19.100;2023-03-01T18:54:11;99175.16;;;-1.88;80.15
33781;BME280;20097;50.832;19.100;2023-03-01T18:59:17;99160.84;;;-1.92;81.41
33781;BME280;20097;50.832;19.100;2023-03-01T19:04:21;99174.69;;;-1.96;80.04
33781;BME280;20097;50.832;19.100;2023-03-01T19:09:25;99181.59;;;-1.98;81.81
33781;BME280;20097;50.832;19.100;2023-03-01T19:14:32;99177.41;;;-1.99;81.65
33781;BME280;20097;50.832;19.100;2023-03-01T19:19:37;99167.59;;;-2.08;81.41
33781;BME280;20097;50.832;19.100;2023-03-01T19:24:41;99167.44;;;-2.05;82.38
33781;BME280;20097;50.832;19.100;2023-03-01T19:29:47;99171.84;;;-2.07;84.44
33781;BME280;20097;50.832;19.100;2023-03-01T19:34:51;99170.47;;;-2.14;83.83
33781;BME280;20097;50.832;19.100;2023-03-01T19:39:55;99178.06;;;-2.12;84.20
33781;BME280;20097;50.832;19.100;2023-03-01T19:45:00;99184.97;;;-2.14;84.31
33781;BME280;20097;50.832;19.100;2023-03-01T19:50:05;99177.00;;;-2.25;86.60
33781;BME280;20097;50.832;19.100;2023-03-01T19:55:10;99179.69;;;-2.28;86.02
33781;BME280;20097;50.832;19.100;2023-03-01T20:00:16;99179.34;;;-2.04;83.90
33781;BME280;20097;50.832;19.100;2023-03-01T20:05:20;99165.84;;;-2.24;85.59
33781;BME280;20097;50.832;19.100;2023-03-01T20:10:25;99164.47;;;-2.48;89.93
33781;BME280;20097;50.832;19.100;2023-03-01T20:15:32;99166.47;;;-2.36;87.75
33781;BME280;20097;50.832;19.100;2023-03-01T20:20:36;99169.88;;;-2.37;84.86
33781;BME280;20097;50.832;19.100;2023-03-01T20:25:41;99159.75;;;-2.39;86.79
33781;BME280;20097;50.832;19.100;2023-03-01T20:30:46;99170.81;;;-2.38;86.86
33781;BME280;20097;50.832;19.100;2023-03-01T20:35:51;99166.00;;;-2.44;86.10
33781;BME280;20097;50.832;19.100;2023-03-01T20:40:57;99169.09;;;-2.38;88.03
33781;BME280;20097;50.832;19.100;2023-03-01T20:46:04;99166.78;;;-2.44;88.77
33781;BME280;20097;50.832;19.100;2023-03-01T20:51:09;99165.53;;;-2.52;91.11
33781;BME280;20097;50.832;19.100;2023-03-01T20:56:15;99164.50;;;-2.67;91.60
33781;BME280;20097;50.832;19.100;2023-03-01T21:01:37;99166.44;;;-2.72;93.39
33781;BME280;20097;50.832;19.100;2023-03-01T21:06:41;99168.31;;;-2.75;92.99
33781;BME280;20097;50.832;19.100;2023-03-01T21:11:48;99169.06;;;-2.73;95.78
33781;BME280;20097;50.832;19.100;2023-03-01T21:16:53;99166.69;;;-2.78;93.90
33781;BME280;20097;50.832;19.100;2023-03-01T21:21:57;99161.56;;;-2.76;91.86
33781;BME280;20097;50.832;19.100;2023-03-01T21:27:01;99167.00;;;-2.84;96.18
33781;BME280;20097;50.832;19.100;2023-03-01T21:32:10;99169.00;;;-2.91;96.69
33781;BME280;20097;50.832;19.100;2023-03-01T21:37:15;99159.13;;;-2.98;96.00
33781;BME280;20097;50.832;19.100;2023-03-01T21:42:21;99161.88;;;-2.84;94.45
33781;BME280;20097;50.832;19.100;2023-03-01T21:47:26;99163.03;;;-2.91;98.77
33781;BME280;20097;50.832;19.100;2023-03-01T21:52:30;99159.06;;;-2.97;96.69
33781;BME280;20097;50.832;19.100;2023-03-01T21:57:34;99164.44;;;-2.84;96.14
33781;BME280;20097;50.832;19.100;2023-03-01T22:02:46;99167.00;;;-2.65;97.71
33781;BME280;20097;50.832;19.100;2023-03-01T22:07:50;99163.03;;;-2.91;97.54
33781;BME280;20097;50.832;19.100;2023-03-01T22:12:55;99159.94;;;-3.16;100.00
33781;BME280;20097;50.832;19.100;2023-03-01T22:18:01;99164.16;;;-3.15;100.00
33781;BME280;20097;50.832;19.100;2023-03-01T22:23:05;99160.72;;;-3.14;100.00
33781;BME280;20097;50.832;19.100;2023-03-01T22:28:10;99157.81;;;-3.07;100.00
33781;BME280;20097;50.832;19.100;2023-03-01T22:33:15;99159.09;;;-2.80;100.00
33781;BME280;20097;50.832;19.100;2023-03-01T22:38:19;99150.06;;;-2.68;100.00
33781;BME280;20097;50.832;19.100;2023-03-01T22:43:23;99146.06;;;-2.92;100.00
33781;BME280;20097;50.832;19.100;2023-03-01T22:48:29;99153.50;;;-3.25;100.00
33781;BME280;20097;50.832;19.100;2023-03-01T22:53:33;99151.66;;;-3.21;100.00
33781;BME280;20097;50.832;19.100;2023-03-01T22:58:37;99143.66;;;-3.32;100.00
33781;BME280;20097;50.832;19.100;2023-03-01T23:03:43;99145.84;;;-3.43;100.00
33781;BME280;20097;50.832;19.100;2023-03-01T23:08:48;99147.56;;;-3.44;100.00
33781;BME280;20097;50.832;19.100;2023-03-01T23:13:53;99142.28;;;-3.59;100.00
33781;BME280;20097;50.832;19.100;2023-03-01T23:18:58;99131.34;;;-3.61;100.00
33781;BME280;20097;50.832;19.100;2023-03-01T23:24:02;99139.22;;;-3.67;100.00
33781;BME280;20097;50.832;19.100;2023-03-01T23:29:07;99126.78;;;-3.55;100.00
33781;BME280;20097;50.832;19.100;2023-03-01T23:34:13;99132.63;;;-3.53;100.00
33781;BME280;20097;50.832;19.100;2023-03-01T23:39:17;99126.38;;;-3.64;100.00
33781;BME280;20097;50.832;19.100;2023-03-01T23:44:22;99122.13;;;-3.65;100.00
33781;BME280;20097;50.832;19.100;2023-03-01T23:49:27;99124.31;;;-3.56;100.00
33781;BME280;20097;50.832;19.100;2023-03-01T23:54:32;99120.44;;;-3.46;100.00
33781;BME280;20097;50.832;19.100;2023-03-01T23:59:36;99119.00;;;-3.33;100.00
